createdAt,value
2018-11-06T00:03:52.774Z,99894.20
2018-11-06T00:08:56.405Z,99895.41
2018-11-06T00:14:00.007Z,99877.30
2018-11-06T00:19:03.548Z,99872.16
2018-11-06T00:24:07.411Z,99866.99
2018-11-06T00:29:12.867Z,99868.88
2018-11-06T00:34:16.845Z,99882.13
2018-11-06T00:39:20.575Z,99895.06
2018-11-06T00:44:24.142Z,99898.66
2018-11-06T00:49:27.657Z,99889.86
2018-11-06T00:54:31.300Z,99896.05
2018-11-06T00:59:34.939Z,99910.27
2018-11-06T01:04:38.657Z,99912.02
2018-11-06T01:09:42.144Z,99910.58
2018-11-06T01:14:45.795Z,99907.66
2018-11-06T01:19:49.373Z,99914.96
2018-11-06T01:24:52.977Z,99915.95
2018-11-06T01:29:56.513Z,99897.90
2018-11-06T01:35:00.156Z,99904.09
2018-11-06T01:40:03.731Z,99899.81
2018-11-06T01:45:09.703Z,99901.89
2018-11-06T01:50:15.273Z,99901.34
2018-11-06T01:55:18.854Z,99903.05
2018-11-06T02:00:33.267Z,99904.95
2018-11-06T02:05:37.151Z,99909.20
2018-11-06T02:10:40.725Z,99913.53
2018-11-06T02:15:44.344Z,99907.19
2018-11-06T02:20:50.655Z,99903.78
2018-11-06T02:25:54.362Z,99907.63
2018-11-06T02:30:57.921Z,99904.19
2018-11-06T02:36:01.446Z,99906.30
2018-11-06T02:41:05.543Z,99909.05
2018-11-06T02:46:09.280Z,99920.71
2018-11-06T02:51:12.971Z,99931.03
2018-11-06T02:56:17.012Z,99940.48
2018-11-06T03:01:20.564Z,99931.53
2018-11-06T03:06:24.103Z,99918.28
2018-11-06T03:11:27.638Z,99920.04
2018-11-06T03:16:31.213Z,99925.66
2018-11-06T03:21:35.206Z,99916.95
2018-11-06T03:26:38.754Z,99923.25
2018-11-06T03:31:42.370Z,99929.16
2018-11-06T03:36:45.917Z,99933.96
2018-11-06T03:41:49.680Z,99928.27
2018-11-06T03:46:53.258Z,99934.28
2018-11-06T03:51:56.882Z,99941.20
2018-11-06T03:57:09.141Z,99941.77
2018-11-06T04:02:12.702Z,99951.59
2018-11-06T04:07:16.315Z,99958.55
2018-11-06T04:12:19.937Z,99951.25
2018-11-06T04:17:23.373Z,99954.64
2018-11-06T04:22:26.988Z,99952.02
2018-11-06T04:27:30.508Z,99955.87
2018-11-06T04:32:34.120Z,99961.97
2018-11-06T04:37:38.558Z,99964.98
2018-11-06T04:42:42.463Z,99952.47
2018-11-06T04:47:49.430Z,99943.41
2018-11-06T04:52:53.097Z,99930.95
2018-11-06T04:57:56.701Z,99939.27
2018-11-06T05:03:00.300Z,99928.03
2018-11-06T05:08:03.759Z,99931.85
2018-11-06T05:13:07.401Z,99934.00
2018-11-06T05:18:10.911Z,99931.43
2018-11-06T05:23:14.509Z,99920.31
2018-11-06T05:28:18.127Z,99935.41
2018-11-06T05:33:30.362Z,99936.69
2018-11-06T05:38:33.812Z,99940.16
2018-11-06T05:43:38.383Z,99949.20
2018-11-06T05:48:41.930Z,99943.19
2018-11-06T05:53:45.606Z,99948.05
2018-11-06T05:58:49.453Z,99948.52
2018-11-06T06:03:53.568Z,99963.59
2018-11-06T06:08:57.196Z,99966.55
2018-11-06T06:14:00.903Z,99967.46
2018-11-06T06:19:07.038Z,99982.96
2018-11-06T06:24:10.716Z,99990.23
2018-11-06T06:29:14.405Z,99987.22
2018-11-06T06:34:18.430Z,99981.25
2018-11-06T06:39:25.433Z,99976.51
2018-11-06T06:44:29.122Z,99973.92
2018-11-06T06:49:32.727Z,99959.24
2018-11-06T06:54:36.833Z,99965.16
2018-11-06T06:59:40.221Z,99986.14
2018-11-06T07:04:43.687Z,99993.44
2018-11-06T07:09:47.237Z,99989.95
2018-11-06T07:14:50.765Z,100007.67
2018-11-06T07:19:54.374Z,100006.03
2018-11-06T07:24:57.824Z,100012.49
2018-11-06T07:30:01.621Z,100024.91
2018-11-06T07:35:06.476Z,100025.59
2018-11-06T07:40:11.789Z,100020.01
2018-11-06T07:45:16.867Z,100009.96
2018-11-06T07:50:20.639Z,99991.69
2018-11-06T07:55:24.161Z,99995.82
2018-11-06T08:00:27.819Z,100004.54
2018-11-06T08:05:31.413Z,100023.63
2018-11-06T08:10:35.086Z,100033.23
2018-11-06T08:15:38.796Z,100024.38
2018-11-06T08:20:42.480Z,100034.16
2018-11-06T08:25:45.919Z,100023.82
2018-11-06T08:30:49.677Z,100044.88
2018-11-06T08:35:53.005Z,100051.41
2018-11-06T08:40:56.639Z,100049.46
2018-11-06T08:46:00.133Z,100039.37
2018-11-06T08:51:05.043Z,100031.98
2018-11-06T08:56:08.726Z,100034.63
2018-11-06T09:01:12.737Z,100030.13
2018-11-06T09:06:16.248Z,100013.63
2018-11-06T09:11:19.809Z,100002.83
2018-11-06T09:16:23.413Z,100010.41
2018-11-06T09:21:27.137Z,100014.64
2018-11-06T09:26:30.728Z,100017.43
2018-11-06T09:31:34.843Z,100027.16
2018-11-06T09:36:39.049Z,100031.91
2018-11-06T09:41:42.759Z,100015.70
2018-11-06T09:46:46.287Z,100012.88
2018-11-06T09:51:49.962Z,100012.64
2018-11-06T09:56:53.546Z,100005.33
2018-11-06T10:01:57.222Z,100009.90
2018-11-06T10:07:01.151Z,100005.10
2018-11-06T10:12:04.355Z,100005.31
2018-11-06T10:17:07.998Z,100005.56
2018-11-06T10:22:11.742Z,100001.12
2018-11-06T10:27:15.334Z,100000.78
2018-11-06T10:32:18.942Z,99996.22
2018-11-06T10:37:22.543Z,99992.79
2018-11-06T10:42:26.081Z,99992.19
2018-11-06T10:47:29.684Z,99993.25
2018-11-06T10:52:33.566Z,99997.52
2018-11-06T10:57:38.828Z,100005.53
2018-11-06T11:02:47.838Z,99994.31
2018-11-06T11:07:51.548Z,99968.81
2018-11-06T11:12:55.348Z,99951.20
2018-11-06T11:17:59.147Z,99950.16
2018-11-06T11:23:02.813Z,99955.81
2018-11-06T11:28:06.397Z,99942.82
2018-11-06T11:33:09.941Z,99931.16
2018-11-06T11:38:13.520Z,99931.91
2018-11-06T11:43:17.127Z,99931.91
2018-11-06T11:48:20.654Z,99925.17
2018-11-06T11:53:24.294Z,99930.80
2018-11-06T11:58:27.866Z,99930.33
2018-11-06T12:03:31.525Z,99931.50
2018-11-06T12:08:35.087Z,99931.79
2018-11-06T12:13:38.756Z,99928.64
2018-11-06T12:18:42.450Z,99921.75
2018-11-06T12:23:46.066Z,99920.19
2018-11-06T12:28:49.656Z,99921.12
2018-11-06T12:33:53.249Z,99918.09
2018-11-06T12:38:56.805Z,99908.27
2018-11-06T12:44:00.444Z,99906.47
2018-11-06T12:49:04.070Z,99895.02
2018-11-06T12:54:07.859Z,99898.67
2018-11-06T12:59:11.407Z,99895.34
2018-11-06T13:04:15.094Z,99885.50
2018-11-06T13:09:18.924Z,99888.77
2018-11-06T13:14:22.497Z,99883.25
2018-11-06T13:19:26.069Z,99886.59
2018-11-06T13:24:29.617Z,99873.34
2018-11-06T13:29:33.205Z,99867.89
2018-11-06T13:34:36.915Z,99860.99
2018-11-06T13:39:40.389Z,99857.66
2018-11-06T13:44:44.302Z,99862.95
2018-11-06T13:49:47.481Z,99858.15
2018-11-06T13:54:51.078Z,99854.05
2018-11-06T13:59:54.635Z,99868.06
2018-11-06T14:04:58.254Z,99865.51
2018-11-06T14:10:02.029Z,99869.43
2018-11-06T14:15:05.776Z,99873.09
2018-11-06T14:20:11.591Z,99871.13
2018-11-06T14:25:15.219Z,99876.78
2018-11-06T14:30:25.003Z,99876.09
2018-11-06T14:35:28.595Z,99877.39
2018-11-06T14:40:32.447Z,99873.77
2018-11-06T14:45:36.106Z,99877.72
2018-11-06T14:50:39.566Z,99880.66
2018-11-06T14:55:43.199Z,99874.88
2018-11-06T15:00:46.812Z,99883.16
2018-11-06T15:05:50.657Z,99876.73
2018-11-06T15:10:54.207Z,99880.33
2018-11-06T15:15:57.826Z,99880.16
2018-11-06T15:21:01.451Z,99879.80
2018-11-06T15:26:04.890Z,99883.14
2018-11-06T15:31:08.467Z,99877.44
2018-11-06T15:36:12.226Z,99863.95
2018-11-06T15:41:15.928Z,99856.55
2018-11-06T15:46:19.447Z,99857.20
2018-11-06T15:51:23.151Z,99857.73
2018-11-06T15:56:26.703Z,99851.54
2018-11-06T16:01:30.336Z,99859.45
2018-11-06T16:06:33.915Z,99864.66
2018-11-06T16:11:37.386Z,99875.77
2018-11-06T16:16:40.991Z,99883.17
2018-11-06T16:21:44.682Z,99874.27
2018-11-06T16:26:48.293Z,99870.98
2018-11-06T16:31:51.886Z,99873.66
2018-11-06T16:36:55.561Z,99873.92
2018-11-06T16:41:59.061Z,99875.66
2018-11-06T16:47:02.641Z,99886.11
2018-11-06T16:52:06.360Z,99883.31
2018-11-06T16:57:10.015Z,99880.51
2018-11-06T17:02:13.653Z,99894.45
2018-11-06T17:07:17.177Z,99893.59
2018-11-06T17:12:20.754Z,99895.81
2018-11-06T17:17:24.259Z,99900.58
2018-11-06T17:22:27.867Z,99904.39
2018-11-06T17:27:31.479Z,99903.28
2018-11-06T17:32:35.186Z,99898.40
2018-11-06T17:37:39.421Z,99896.42
2018-11-06T17:42:43.610Z,99896.66
2018-11-06T17:47:47.206Z,99895.08
2018-11-06T17:52:50.802Z,99890.69
2018-11-06T17:57:54.394Z,99887.02
2018-11-06T18:02:58.399Z,99883.69
2018-11-06T18:08:01.984Z,99887.26
2018-11-06T18:13:06.011Z,99885.12
2018-11-06T18:18:09.823Z,99878.19
2018-11-06T18:23:13.804Z,99868.44
2018-11-06T18:28:17.318Z,99866.36
2018-11-06T18:33:20.924Z,99872.89
2018-11-06T18:38:24.685Z,99875.09
2018-11-06T18:43:28.177Z,99881.45
2018-11-06T18:48:31.855Z,99878.59
2018-11-06T18:53:35.507Z,99879.16
2018-11-06T18:58:39.170Z,99880.06
2018-11-06T19:03:49.822Z,99881.88
2018-11-06T19:08:53.533Z,99888.00
2018-11-06T19:13:57.510Z,99883.67
2018-11-06T19:19:01.219Z,99892.77
2018-11-06T19:24:08.940Z,99905.81
2018-11-06T19:29:12.511Z,99899.66
2018-11-06T19:34:23.966Z,99896.31
2018-11-06T19:39:27.651Z,99892.88
2018-11-06T19:44:31.290Z,99901.92
2018-11-06T19:49:39.894Z,99913.09
2018-11-06T19:54:43.591Z,99912.40
2018-11-06T19:59:47.128Z,99920.77
2018-11-06T20:04:50.989Z,99925.63
2018-11-06T20:09:54.577Z,99931.44
2018-11-06T20:14:58.228Z,99935.41
2018-11-06T20:20:02.090Z,99934.78
2018-11-06T20:25:05.855Z,99940.72
2018-11-06T20:30:15.123Z,99934.12
2018-11-06T20:35:21.107Z,99934.56
2018-11-06T20:40:26.387Z,99939.98
2018-11-06T20:45:30.140Z,99945.94
2018-11-06T20:50:33.645Z,99942.19
2018-11-06T20:55:37.354Z,99946.00
2018-11-06T21:00:41.005Z,99947.37
2018-11-06T21:05:44.710Z,99952.63
2018-11-06T21:10:49.021Z,99952.09
2018-11-06T21:15:53.065Z,99951.90
2018-11-06T21:20:58.008Z,99949.80
2018-11-06T21:26:03.439Z,99960.77
2018-11-06T21:31:08.163Z,99961.06
2018-11-06T21:36:11.858Z,99957.81
2018-11-06T21:41:15.577Z,99953.85
2018-11-06T21:46:19.397Z,99956.14
2018-11-06T21:51:23.038Z,99951.07
2018-11-06T21:56:26.772Z,99953.36
2018-11-06T22:01:30.439Z,99938.05
2018-11-06T22:06:35.057Z,99930.80
2018-11-06T22:11:38.561Z,99920.72
2018-11-06T22:16:42.325Z,99920.40
2018-11-06T22:21:46.038Z,99926.10
2018-11-06T22:26:49.713Z,99943.02
2018-11-06T22:31:53.740Z,99943.72
2018-11-06T22:36:57.435Z,99952.34
2018-11-06T22:42:01.055Z,99953.08
2018-11-06T22:47:05.153Z,99961.64
2018-11-06T22:52:08.827Z,99958.16
2018-11-06T22:57:12.591Z,99969.38
2018-11-06T23:02:16.290Z,99974.69
2018-11-06T23:07:25.197Z,99960.71
2018-11-06T23:12:31.880Z,99959.69
2018-11-06T23:17:36.897Z,99953.51
2018-11-06T23:22:41.986Z,99958.91
2018-11-06T23:27:47.353Z,99959.63
2018-11-06T23:32:53.193Z,99959.79
2018-11-06T23:37:58.626Z,99946.19
2018-11-06T23:43:03.634Z,99949.42
2018-11-06T23:48:08.704Z,99961.31
2018-11-06T23:53:13.724Z,99962.30
2018-11-06T23:58:17.392Z,99956.14
